sensor_id;sensor_type;location;lat;lon;timestamp;P1;durP1;ratioP1;P2;durP2;ratioP2
62673;SDS011;62269;47.594;17.638;2022-10-22T00:00:27;14.27;;;11.82;;
62673;SDS011;62269;47.594;17.638;2022-10-22T00:01:13;13.57;;;11.20;;
62673;SDS011;62269;47.594;17.638;2022-10-22T00:02:00;17.70;;;11.88;;
62673;SDS011;62269;47.594;17.638;2022-10-22T00:02:47;13.20;;;11.77;;
62673;SDS011;62269;47.594;17.638;2022-10-22T00:03:34;15.50;;;11.95;;
62673;SDS011;62269;47.594;17.638;2022-10-22T00:04:22;14.02;;;11.30;;
62673;SDS011;62269;47.594;17.638;2022-10-22T00:05:09;15.70;;;11.70;;
62673;SDS011;62269;47.594;17.638;2022-10-22T00:05:57;15.10;;;11.32;;
62673;SDS011;62269;47.594;17.638;2022-10-22T00:06:44;13.62;;;11.70;;
62673;SDS011;62269;47.594;17.638;2022-10-22T00:07:31;13.02;;;11.43;;
62673;SDS011;62269;47.594;17.638;2022-10-22T00:08:18;16.52;;;11.80;;
62673;SDS011;62269;47.594;17.638;2022-10-22T00:09:05;12.57;;;10.93;;
62673;SDS011;62269;47.594;17.638;2022-10-22T00:09:52;14.18;;;12.68;;
62673;SDS011;62269;47.594;17.638;2022-10-22T00:10:39;13.65;;;11.50;;
62673;SDS011;62269;47.594;17.638;2022-10-22T00:11:27;14.85;;;11.57;;
62673;SDS011;62269;47.594;17.638;2022-10-22T00:12:14;15.10;;;12.13;;
62673;SDS011;62269;47.594;17.638;2022-10-22T00:13:02;13.23;;;11.35;;
62673;SDS011;62269;47.594;17.638;2022-10-22T00:13:49;13.20;;;11.40;;
62673;SDS011;62269;47.594;17.638;2022-10-22T00:14:36;14.87;;;12.00;;
62673;SDS011;62269;47.594;17.638;2022-10-22T00:15:23;16.70;;;11.85;;
62673;SDS011;62269;47.594;17.638;2022-10-22T00:16:10;16.30;;;11.63;;
62673;SDS011;62269;47.594;17.638;2022-10-22T00:16:57;13.20;;;11.35;;
62673;SDS011;62269;47.594;17.638;2022-10-22T00:17:46;14.02;;;11.73;;
62673;SDS011;62269;47.594;17.638;2022-10-22T00:18:35;14.60;;;11.25;;
62673;SDS011;62269;47.594;17.638;2022-10-22T00:19:22;14.75;;;11.88;;
62673;SDS011;62269;47.594;17.638;2022-10-22T00:20:09;14.43;;;11.02;;
62673;SDS011;62269;47.594;17.638;2022-10-22T00:20:56;13.62;;;11.63;;
62673;SDS011;62269;47.594;17.638;2022-10-22T00:21:43;13.20;;;10.90;;
62673;SDS011;62269;47.594;17.638;2022-10-22T00:22:30;13.15;;;11.65;;
62673;SDS011;62269;47.594;17.638;2022-10-22T00:23:17;14.68;;;10.95;;
62673;SDS011;62269;47.594;17.638;2022-10-22T00:24:04;13.60;;;12.13;;
62673;SDS011;62269;47.594;17.638;2022-10-22T00:24:51;17.62;;;11.55;;
62673;SDS011;62269;47.594;17.638;2022-10-22T00:25:38;15.50;;;11.88;;
62673;SDS011;62269;47.594;17.638;2022-10-22T00:26:25;16.37;;;11.77;;
62673;SDS011;62269;47.594;17.638;2022-10-22T00:27:13;15.52;;;11.70;;
62673;SDS011;62269;47.594;17.638;2022-10-22T00:28:00;15.02;;;12.88;;
62673;SDS011;62269;47.594;17.638;2022-10-22T00:28:48;13.43;;;11.50;;
62673;SDS011;62269;47.594;17.638;2022-10-22T00:29:34;14.63;;;12.23;;
62673;SDS011;62269;47.594;17.638;2022-10-22T00:30:22;14.02;;;11.80;;
62673;SDS011;62269;47.594;17.638;2022-10-22T00:31:09;16.98;;;11.98;;
62673;SDS011;62269;47.594;17.638;2022-10-22T00:31:56;16.67;;;12.37;;
62673;SDS011;62269;47.594;17.638;2022-10-22T00:32:43;13.73;;;12.27;;
62673;SDS011;62269;47.594;17.638;2022-10-22T00:33:30;13.90;;;11.77;;
62673;SDS011;62269;47.594;17.638;2022-10-22T00:34:18;22.70;;;13.73;;
62673;SDS011;62269;47.594;17.638;2022-10-22T00:35:06;15.88;;;12.63;;
62673;SDS011;62269;47.594;17.638;2022-10-22T00:35:54;17.67;;;12.93;;
62673;SDS011;62269;47.594;17.638;2022-10-22T00:36:41;12.70;;;11.35;;
62673;SDS011;62269;47.594;17.638;2022-10-22T00:37:28;18.73;;;12.73;;
62673;SDS011;62269;47.594;17.638;2022-10-22T00:38:15;16.70;;;12.15;;
62673;SDS011;62269;47.594;17.638;2022-10-22T00:39:02;14.13;;;11.52;;
62673;SDS011;62269;47.594;17.638;2022-10-22T00:39:49;14.75;;;12.23;;
62673;SDS011;62269;47.594;17.638;2022-10-22T00:40:36;15.80;;;12.32;;
62673;SDS011;62269;47.594;17.638;2022-10-22T00:41:23;14.82;;;12.68;;
62673;SDS011;62269;47.594;17.638;2022-10-22T00:42:15;15.48;;;12.43;;
62673;SDS011;62269;47.594;17.638;2022-10-22T00:43:04;15.73;;;12.15;;
62673;SDS011;62269;47.594;17.638;2022-10-22T00:43:52;15.30;;;11.93;;
62673;SDS011;62269;47.594;17.638;2022-10-22T00:45:52;16.05;;;12.02;;
62673;SDS011;62269;47.594;17.638;2022-10-22T00:46:39;15.25;;;12.23;;
62673;SDS011;62269;47.594;17.638;2022-10-22T00:47:27;13.48;;;12.05;;
62673;SDS011;62269;47.594;17.638;2022-10-22T00:48:26;13.18;;;11.43;;
62673;SDS011;62269;47.594;17.638;2022-10-22T00:49:14;15.88;;;13.00;;
62673;SDS011;62269;47.594;17.638;2022-10-22T00:50:03;13.82;;;11.77;;
62673;SDS011;62269;47.594;17.638;2022-10-22T00:51:41;14.98;;;12.27;;
62673;SDS011;62269;47.594;17.638;2022-10-22T00:52:28;14.07;;;12.52;;
62673;SDS011;62269;47.594;17.638;2022-10-22T00:53:18;19.60;;;13.75;;
62673;SDS011;62269;47.594;17.638;2022-10-22T00:54:52;17.35;;;13.40;;
62673;SDS011;62269;47.594;17.638;2022-10-22T00:55:40;15.52;;;12.25;;
62673;SDS011;62269;47.594;17.638;2022-10-22T00:56:28;13.95;;;12.48;;
62673;SDS011;62269;47.594;17.638;2022-10-22T00:57:15;16.87;;;13.32;;
62673;SDS011;62269;47.594;17.638;2022-10-22T00:58:03;15.45;;;12.85;;
62673;SDS011;62269;47.594;17.638;2022-10-22T00:58:51;15.18;;;12.48;;
62673;SDS011;62269;47.594;17.638;2022-10-22T00:59:39;19.08;;;13.18;;
62673;SDS011;62269;47.594;17.638;2022-10-22T01:00:27;16.42;;;13.02;;
62673;SDS011;62269;47.594;17.638;2022-10-22T01:01:17;17.60;;;13.48;;
62673;SDS011;62269;47.594;17.638;2022-10-22T01:02:08;19.87;;;13.95;;
62673;SDS011;62269;47.594;17.638;2022-10-22T01:02:55;15.95;;;12.30;;
62673;SDS011;62269;47.594;17.638;2022-10-22T01:03:43;17.00;;;12.90;;
62673;SDS011;62269;47.594;17.638;2022-10-22T01:04:30;15.55;;;13.05;;
62673;SDS011;62269;47.594;17.638;2022-10-22T01:05:17;16.00;;;13.25;;
62673;SDS011;62269;47.594;17.638;2022-10-22T01:06:04;15.50;;;13.15;;
62673;SDS011;62269;47.594;17.638;2022-10-22T01:06:52;17.80;;;13.45;;
62673;SDS011;62269;47.594;17.638;2022-10-22T01:07:43;15.95;;;14.02;;
62673;SDS011;62269;47.594;17.638;2022-10-22T01:09:41;14.63;;;13.10;;
62673;SDS011;62269;47.594;17.638;2022-10-22T01:12:44;15.93;;;13.20;;
62673;SDS011;62269;47.594;17.638;2022-10-22T01:13:35;17.15;;;13.73;;
62673;SDS011;62269;47.594;17.638;2022-10-22T01:15:25;15.38;;;13.32;;
62673;SDS011;62269;47.594;17.638;2022-10-22T01:16:32;15.10;;;12.88;;
62673;SDS011;62269;47.594;17.638;2022-10-22T01:17:50;16.55;;;12.80;;
62673;SDS011;62269;47.594;17.638;2022-10-22T01:20:50;18.15;;;13.85;;
62673;SDS011;62269;47.594;17.638;2022-10-22T01:21:49;20.65;;;13.35;;
62673;SDS011;62269;47.594;17.638;2022-10-22T01:22:40;15.98;;;13.13;;
62673;SDS011;62269;47.594;17.638;2022-10-22T01:23:45;19.87;;;13.40;;
62673;SDS011;62269;47.594;17.638;2022-10-22T01:25:47;14.68;;;12.52;;
62673;SDS011;62269;47.594;17.638;2022-10-22T01:28:05;16.75;;;12.68;;
62673;SDS011;62269;47.594;17.638;2022-10-22T01:29:11;15.55;;;13.02;;
62673;SDS011;62269;47.594;17.638;2022-10-22T01:30:05;15.75;;;13.35;;
62673;SDS011;62269;47.594;17.638;2022-10-22T01:30:53;17.00;;;13.25;;
62673;SDS011;62269;47.594;17.638;2022-10-22T01:31:42;18.20;;;13.27;;
62673;SDS011;62269;47.594;17.638;2022-10-22T01:33:30;16.25;;;13.25;;
62673;SDS011;62269;47.594;17.638;2022-10-22T01:34:17;18.30;;;13.45;;
62673;SDS011;62269;47.594;17.638;2022-10-22T01:35:06;16.90;;;13.50;;
62673;SDS011;62269;47.594;17.638;2022-10-22T01:35:54;17.83;;;14.30;;
62673;SDS011;62269;47.594;17.638;2022-10-22T01:36:42;15.55;;;13.62;;
62673;SDS011;62269;47.594;17.638;2022-10-22T01:37:30;17.90;;;14.02;;
62673;SDS011;62269;47.594;17.638;2022-10-22T01:38:20;17.65;;;13.02;;
62673;SDS011;62269;47.594;17.638;2022-10-22T01:39:10;23.58;;;14.15;;
62673;SDS011;62269;47.594;17.638;2022-10-22T01:39:58;17.05;;;14.48;;
62673;SDS011;62269;47.594;17.638;2022-10-22T01:40:46;19.30;;;13.50;;
62673;SDS011;62269;47.594;17.638;2022-10-22T01:41:33;19.50;;;14.10;;
62673;SDS011;62269;47.594;17.638;2022-10-22T01:42:20;16.55;;;14.23;;
62673;SDS011;62269;47.594;17.638;2022-10-22T01:43:08;16.50;;;14.02;;
62673;SDS011;62269;47.594;17.638;2022-10-22T01:43:56;15.65;;;12.65;;
62673;SDS011;62269;47.594;17.638;2022-10-22T01:44:43;15.60;;;13.32;;
62673;SDS011;62269;47.594;17.638;2022-10-22T01:45:34;16.77;;;13.68;;
62673;SDS011;62269;47.594;17.638;2022-10-22T01:46:23;16.33;;;13.80;;
62673;SDS011;62269;47.594;17.638;2022-10-22T01:52:06;16.83;;;12.70;;
62673;SDS011;62269;47.594;17.638;2022-10-22T01:54:30;21.80;;;14.63;;
62673;SDS011;62269;47.594;17.638;2022-10-22T01:55:41;15.57;;;12.63;;
62673;SDS011;62269;47.594;17.638;2022-10-22T01:58:00;15.48;;;13.02;;
62673;SDS011;62269;47.594;17.638;2022-10-22T01:58:54;16.95;;;13.10;;
62673;SDS011;62269;47.594;17.638;2022-10-22T02:00:54;14.65;;;12.73;;
62673;SDS011;62269;47.594;17.638;2022-10-22T02:03:07;16.00;;;13.07;;
62673;SDS011;62269;47.594;17.638;2022-10-22T02:04:00;14.82;;;13.05;;
62673;SDS011;62269;47.594;17.638;2022-10-22T02:04:57;15.57;;;12.82;;
62673;SDS011;62269;47.594;17.638;2022-10-22T02:05:54;16.58;;;13.20;;
62673;SDS011;62269;47.594;17.638;2022-10-22T02:06:44;17.02;;;13.88;;
62673;SDS011;62269;47.594;17.638;2022-10-22T02:07:43;14.63;;;12.93;;
62673;SDS011;62269;47.594;17.638;2022-10-22T02:08:34;17.40;;;13.98;;
62673;SDS011;62269;47.594;17.638;2022-10-22T02:09:22;18.98;;;15.18;;
62673;SDS011;62269;47.594;17.638;2022-10-22T02:10:11;15.82;;;13.18;;
62673;SDS011;62269;47.594;17.638;2022-10-22T02:10:58;18.02;;;14.50;;
62673;SDS011;62269;47.594;17.638;2022-10-22T02:11:46;15.23;;;13.27;;
62673;SDS011;62269;47.594;17.638;2022-10-22T02:12:33;16.42;;;14.25;;
62673;SDS011;62269;47.594;17.638;2022-10-22T02:13:25;20.60;;;15.57;;
62673;SDS011;62269;47.594;17.638;2022-10-22T02:14:14;16.27;;;13.90;;
62673;SDS011;62269;47.594;17.638;2022-10-22T02:15:03;17.87;;;14.07;;
62673;SDS011;62269;47.594;17.638;2022-10-22T02:15:51;14.70;;;13.20;;
62673;SDS011;62269;47.594;17.638;2022-10-22T02:16:40;14.93;;;13.32;;
62673;SDS011;62269;47.594;17.638;2022-10-22T02:17:29;19.52;;;13.57;;
62673;SDS011;62269;47.594;17.638;2022-10-22T02:18:19;15.43;;;13.40;;
62673;SDS011;62269;47.594;17.638;2022-10-22T02:19:17;16.75;;;13.55;;
62673;SDS011;62269;47.594;17.638;2022-10-22T02:20:09;16.08;;;13.93;;
62673;SDS011;62269;47.594;17.638;2022-10-22T02:21:06;16.77;;;13.65;;
62673;SDS011;62269;47.594;17.638;2022-10-22T02:21:58;15.35;;;13.60;;
62673;SDS011;62269;47.594;17.638;2022-10-22T02:22:45;16.08;;;13.85;;
62673;SDS011;62269;47.594;17.638;2022-10-22T02:23:32;17.98;;;13.52;;
62673;SDS011;62269;47.594;17.638;2022-10-22T02:24:20;16.70;;;13.70;;
62673;SDS011;62269;47.594;17.638;2022-10-22T02:25:07;14.95;;;12.68;;
62673;SDS011;62269;47.594;17.638;2022-10-22T02:25:59;15.50;;;13.27;;
62673;SDS011;62269;47.594;17.638;2022-10-22T02:28:15;15.52;;;13.13;;
62673;SDS011;62269;47.594;17.638;2022-10-22T02:29:07;18.23;;;13.10;;
62673;SDS011;62269;47.594;17.638;2022-10-22T02:30:08;16.10;;;12.77;;
62673;SDS011;62269;47.594;17.638;2022-10-22T02:31:10;16.37;;;13.07;;
62673;SDS011;62269;47.594;17.638;2022-10-22T02:32:01;21.58;;;13.45;;
62673;SDS011;62269;47.594;17.638;2022-10-22T02:33:55;18.85;;;15.45;;
62673;SDS011;62269;47.594;17.638;2022-10-22T02:34:43;20.73;;;15.80;;
62673;SDS011;62269;47.594;17.638;2022-10-22T02:35:30;16.98;;;14.60;;
62673;SDS011;62269;47.594;17.638;2022-10-22T02:36:17;17.27;;;14.35;;
62673;SDS011;62269;47.594;17.638;2022-10-22T02:37:05;16.52;;;14.50;;
62673;SDS011;62269;47.594;17.638;2022-10-22T02:37:53;17.92;;;13.98;;
62673;SDS011;62269;47.594;17.638;2022-10-22T02:38:41;16.17;;;13.62;;
62673;SDS011;62269;47.594;17.638;2022-10-22T02:39:28;17.35;;;13.88;;
62673;SDS011;62269;47.594;17.638;2022-10-22T02:40:17;17.80;;;13.50;;
62673;SDS011;62269;47.594;17.638;2022-10-22T02:41:04;15.80;;;13.27;;
62673;SDS011;62269;47.594;17.638;2022-10-22T02:41:51;17.23;;;13.95;;
62673;SDS011;62269;47.594;17.638;2022-10-22T02:42:38;16.65;;;14.27;;
62673;SDS011;62269;47.594;17.638;2022-10-22T02:43:27;18.98;;;14.20;;
62673;SDS011;62269;47.594;17.638;2022-10-22T02:44:15;17.20;;;14.43;;
62673;SDS011;62269;47.594;17.638;2022-10-22T02:45:06;14.98;;;13.38;;
62673;SDS011;62269;47.594;17.638;2022-10-22T02:45:54;17.25;;;14.52;;
62673;SDS011;62269;47.594;17.638;2022-10-22T02:46:41;14.93;;;13.02;;
62673;SDS011;62269;47.594;17.638;2022-10-22T02:47:28;15.25;;;13.48;;
62673;SDS011;62269;47.594;17.638;2022-10-22T02:48:15;15.75;;;13.82;;
62673;SDS011;62269;47.594;17.638;2022-10-22T02:49:03;15.43;;;13.60;;
62673;SDS011;62269;47.594;17.638;2022-10-22T02:49:50;14.45;;;12.95;;
62673;SDS011;62269;47.594;17.638;2022-10-22T02:50:37;17.42;;;14.68;;
62673;SDS011;62269;47.594;17.638;2022-10-22T02:51:24;17.08;;;14.15;;
62673;SDS011;62269;47.594;17.638;2022-10-22T02:52:11;18.30;;;13.77;;
62673;SDS011;62269;47.594;17.638;2022-10-22T02:52:58;16.08;;;14.38;;
62673;SDS011;62269;47.594;17.638;2022-10-22T02:53:45;15.57;;;13.88;;
62673;SDS011;62269;47.594;17.638;2022-10-22T02:54:31;17.67;;;14.55;;
62673;SDS011;62269;47.594;17.638;2022-10-22T02:55:18;17.10;;;14.35;;
62673;SDS011;62269;47.594;17.638;2022-10-22T02:56:05;17.58;;;13.73;;
62673;SDS011;62269;47.594;17.638;2022-10-22T02:56:52;15.43;;;13.85;;
62673;SDS011;62269;47.594;17.638;2022-10-22T02:57:40;22.23;;;14.90;;
62673;SDS011;62269;47.594;17.638;2022-10-22T02:58:27;16.25;;;13.52;;
62673;SDS011;62269;47.594;17.638;2022-10-22T02:59:14;19.98;;;14.40;;
62673;SDS011;62269;47.594;17.638;2022-10-22T03:00:02;18.58;;;14.13;;
62673;SDS011;62269;47.594;17.638;2022-10-22T03:00:50;15.98;;;14.02;;
62673;SDS011;62269;47.594;17.638;2022-10-22T03:01:37;18.87;;;14.68;;
62673;SDS011;62269;47.594;17.638;2022-10-22T03:02:24;17.62;;;14.32;;
62673;SDS011;62269;47.594;17.638;2022-10-22T03:03:11;16.30;;;14.60;;
62673;SDS011;62269;47.594;17.638;2022-10-22T03:03:59;19.45;;;13.55;;
62673;SDS011;62269;47.594;17.638;2022-10-22T03:04:46;16.10;;;14.25;;
62673;SDS011;62269;47.594;17.638;2022-10-22T03:05:33;23.77;;;15.82;;
62673;SDS011;62269;47.594;17.638;2022-10-22T03:06:20;17.15;;;14.48;;
62673;SDS011;62269;47.594;17.638;2022-10-22T03:07:07;17.33;;;14.13;;
62673;SDS011;62269;47.594;17.638;2022-10-22T03:07:54;19.35;;;14.68;;
62673;SDS011;62269;47.594;17.638;2022-10-22T03:08:41;17.02;;;14.70;;
62673;SDS011;62269;47.594;17.638;2022-10-22T03:09:29;15.82;;;14.13;;
62673;SDS011;62269;47.594;17.638;2022-10-22T03:10:16;18.77;;;15.93;;
62673;SDS011;62269;47.594;17.638;2022-10-22T03:11:02;17.60;;;14.93;;
62673;SDS011;62269;47.594;17.638;2022-10-22T03:11:49;17.30;;;14.77;;
62673;SDS011;62269;47.594;17.638;2022-10-22T03:12:37;18.23;;;14.73;;
62673;SDS011;62269;47.594;17.638;2022-10-22T03:13:24;19.98;;;16.52;;
62673;SDS011;62269;47.594;17.638;2022-10-22T03:14:11;17.58;;;15.68;;
62673;SDS011;62269;47.594;17.638;2022-10-22T03:14:58;18.17;;;14.68;;
62673;SDS011;62269;47.594;17.638;2022-10-22T03:15:47;19.27;;;15.50;;
62673;SDS011;62269;47.594;17.638;2022-10-22T03:16:34;21.02;;;16.42;;
62673;SDS011;62269;47.594;17.638;2022-10-22T03:17:21;17.75;;;15.27;;
62673;SDS011;62269;47.594;17.638;2022-10-22T03:18:08;16.35;;;14.65;;
62673;SDS011;62269;47.594;17.638;2022-10-22T03:18:55;18.00;;;15.32;;
62673;SDS011;62269;47.594;17.638;2022-10-22T03:19:42;18.27;;;15.45;;
62673;SDS011;62269;47.594;17.638;2022-10-22T03:20:29;18.42;;;14.98;;
62673;SDS011;62269;47.594;17.638;2022-10-22T03:21:29;28.83;;;15.30;;
62673;SDS011;62269;47.594;17.638;2022-10-22T03:22:21;18.70;;;14.75;;
62673;SDS011;62269;47.594;17.638;2022-10-22T03:23:11;21.25;;;14.85;;
62673;SDS011;62269;47.594;17.638;2022-10-22T03:24:04;16.95;;;14.25;;
62673;SDS011;62269;47.594;17.638;2022-10-22T03:24:54;15.20;;;13.55;;
62673;SDS011;62269;47.594;17.638;2022-10-22T03:25:45;17.50;;;15.32;;
62673;SDS011;62269;47.594;17.638;2022-10-22T03:26:34;18.27;;;14.93;;
62673;SDS011;62269;47.594;17.638;2022-10-22T03:27:21;18.00;;;14.75;;
62673;SDS011;62269;47.594;17.638;2022-10-22T03:28:09;19.55;;;14.77;;
62673;SDS011;62269;47.594;17.638;2022-10-22T03:28:56;18.52;;;15.85;;
62673;SDS011;62269;47.594;17.638;2022-10-22T03:29:43;17.42;;;14.52;;
62673;SDS011;62269;47.594;17.638;2022-10-22T03:30:32;19.87;;;14.90;;
62673;SDS011;62269;47.594;17.638;2022-10-22T03:31:19;21.48;;;14.87;;
62673;SDS011;62269;47.594;17.638;2022-10-22T03:32:06;16.90;;;14.63;;
62673;SDS011;62269;47.594;17.638;2022-10-22T03:32:53;17.60;;;14.90;;
62673;SDS011;62269;47.594;17.638;2022-10-22T03:33:40;17.10;;;15.30;;
62673;SDS011;62269;47.594;17.638;2022-10-22T03:34:27;18.10;;;14.80;;
62673;SDS011;62269;47.594;17.638;2022-10-22T03:35:14;20.12;;;15.18;;
62673;SDS011;62269;47.594;17.638;2022-10-22T03:36:01;18.45;;;15.07;;
62673;SDS011;62269;47.594;17.638;2022-10-22T03:36:47;19.02;;;14.23;;
62673;SDS011;62269;47.594;17.638;2022-10-22T03:37:35;17.75;;;14.45;;
62673;SDS011;62269;47.594;17.638;2022-10-22T03:38:23;18.23;;;14.73;;
62673;SDS011;62269;47.594;17.638;2022-10-22T03:39:10;19.00;;;15.20;;
62673;SDS011;62269;47.594;17.638;2022-10-22T03:39:59;17.58;;;14.43;;
62673;SDS011;62269;47.594;17.638;2022-10-22T03:40:46;16.83;;;15.02;;
62673;SDS011;62269;47.594;17.638;2022-10-22T03:41:33;19.20;;;15.43;;
62673;SDS011;62269;47.594;17.638;2022-10-22T03:42:20;21.85;;;15.30;;
62673;SDS011;62269;47.594;17.638;2022-10-22T03:43:07;21.27;;;15.60;;
62673;SDS011;62269;47.594;17.638;2022-10-22T03:43:54;18.42;;;14.95;;
62673;SDS011;62269;47.594;17.638;2022-10-22T03:44:42;18.55;;;15.40;;
62673;SDS011;62269;47.594;17.638;2022-10-22T03:45:29;19.20;;;15.02;;
62673;SDS011;62269;47.594;17.638;2022-10-22T03:46:17;23.15;;;15.00;;
62673;SDS011;62269;47.594;17.638;2022-10-22T03:47:04;18.27;;;14.30;;
62673;SDS011;62269;47.594;17.638;2022-10-22T03:47:52;18.50;;;14.63;;
62673;SDS011;62269;47.594;17.638;2022-10-22T03:48:39;20.25;;;14.80;;
62673;SDS011;62269;47.594;17.638;2022-10-22T03:49:25;17.75;;;14.57;;
62673;SDS011;62269;47.594;17.638;2022-10-22T03:50:12;17.98;;;15.27;;
62673;SDS011;62269;47.594;17.638;2022-10-22T03:50:59;19.02;;;14.70;;
62673;SDS011;62269;47.594;17.638;2022-10-22T03:51:46;17.27;;;14.07;;
62673;SDS011;62269;47.594;17.638;2022-10-22T03:52:34;17.52;;;14.00;;
62673;SDS011;62269;47.594;17.638;2022-10-22T03:53:22;18.98;;;14.45;;
62673;SDS011;62269;47.594;17.638;2022-10-22T03:54:09;18.45;;;14.32;;
62673;SDS011;62269;47.594;17.638;2022-10-22T03:54:56;19.30;;;15.27;;
62673;SDS011;62269;47.594;17.638;2022-10-22T03:55:43;25.73;;;15.05;;
62673;SDS011;62269;47.594;17.638;2022-10-22T03:56:30;18.37;;;15.52;;
62673;SDS011;62269;47.594;17.638;2022-10-22T03:57:18;18.42;;;14.93;;
62673;SDS011;62269;47.594;17.638;2022-10-22T03:58:04;21.58;;;15.27;;
62673;SDS011;62269;47.594;17.638;2022-10-22T03:58:54;21.52;;;15.90;;
62673;SDS011;62269;47.594;17.638;2022-10-22T03:59:42;16.80;;;14.35;;
62673;SDS011;62269;47.594;17.638;2022-10-22T04:00:30;19.52;;;14.10;;
62673;SDS011;62269;47.594;17.638;2022-10-22T04:01:17;16.95;;;13.88;;
62673;SDS011;62269;47.594;17.638;2022-10-22T04:02:04;17.65;;;14.45;;
62673;SDS011;62269;47.594;17.638;2022-10-22T04:02:51;18.30;;;14.85;;
62673;SDS011;62269;47.594;17.638;2022-10-22T04:03:38;17.77;;;14.65;;
62673;SDS011;62269;47.594;17.638;2022-10-22T04:04:26;17.73;;;15.65;;
62673;SDS011;62269;47.594;17.638;2022-10-22T04:05:12;17.70;;;14.55;;
62673;SDS011;62269;47.594;17.638;2022-10-22T04:06:07;18.90;;;14.93;;
62673;SDS011;62269;47.594;17.638;2022-10-22T04:06:56;18.48;;;13.88;;
62673;SDS011;62269;47.594;17.638;2022-10-22T04:07:43;18.95;;;14.80;;
62673;SDS011;62269;47.594;17.638;2022-10-22T04:08:30;21.50;;;15.35;;
62673;SDS011;62269;47.594;17.638;2022-10-22T04:09:17;22.15;;;14.93;;
62673;SDS011;62269;47.594;17.638;2022-10-22T04:10:04;16.87;;;15.13;;
62673;SDS011;62269;47.594;17.638;2022-10-22T04:10:52;16.83;;;14.90;;
62673;SDS011;62269;47.594;17.638;2022-10-22T04:11:39;19.77;;;14.98;;
62673;SDS011;62269;47.594;17.638;2022-10-22T04:12:26;17.50;;;15.05;;
62673;SDS011;62269;47.594;17.638;2022-10-22T04:13:12;20.23;;;14.90;;
62673;SDS011;62269;47.594;17.638;2022-10-22T04:13:59;19.02;;;15.35;;
62673;SDS011;62269;47.594;17.638;2022-10-22T04:14:46;21.12;;;14.85;;
62673;SDS011;62269;47.594;17.638;2022-10-22T04:15:33;17.20;;;15.13;;
62673;SDS011;62269;47.594;17.638;2022-10-22T04:16:21;16.67;;;14.32;;
62673;SDS011;62269;47.594;17.638;2022-10-22T04:17:12;15.82;;;14.23;;
62673;SDS011;62269;47.594;17.638;2022-10-22T04:17:59;18.73;;;14.65;;
62673;SDS011;62269;47.594;17.638;2022-10-22T04:18:47;19.80;;;15.38;;
62673;SDS011;62269;47.594;17.638;2022-10-22T04:19:44;16.67;;;14.25;;
62673;SDS011;62269;47.594;17.638;2022-10-22T04:20:44;17.45;;;14.70;;
62673;SDS011;62269;47.594;17.638;2022-10-22T04:21:34;17.77;;;15.20;;
62673;SDS011;62269;47.594;17.638;2022-10-22T04:22:26;19.83;;;15.95;;
62673;SDS011;62269;47.594;17.638;2022-10-22T04:23:18;17.27;;;15.52;;
62673;SDS011;62269;47.594;17.638;2022-10-22T04:24:08;19.55;;;15.30;;
62673;SDS011;62269;47.594;17.638;2022-10-22T04:25:00;21.05;;;16.25;;
62673;SDS011;62269;47.594;17.638;2022-10-22T04:25:59;21.17;;;15.68;;
62673;SDS011;62269;47.594;17.638;2022-10-22T04:26:52;19.50;;;15.35;;
62673;SDS011;62269;47.594;17.638;2022-10-22T04:27:44;17.55;;;15.15;;
62673;SDS011;62269;47.594;17.638;2022-10-22T04:28:35;18.73;;;16.02;;
62673;SDS011;62269;47.594;17.638;2022-10-22T04:29:25;18.15;;;16.25;;
62673;SDS011;62269;47.594;17.638;2022-10-22T04:30:15;17.48;;;15.57;;
62673;SDS011;62269;47.594;17.638;2022-10-22T04:31:10;19.75;;;17.58;;
62673;SDS011;62269;47.594;17.638;2022-10-22T04:32:04;19.12;;;15.98;;
62673;SDS011;62269;47.594;17.638;2022-10-22T04:32:54;21.20;;;15.67;;
62673;SDS011;62269;47.594;17.638;2022-10-22T04:33:45;16.70;;;14.82;;
62673;SDS011;62269;47.594;17.638;2022-10-22T04:34:36;18.48;;;15.82;;
62673;SDS011;62269;47.594;17.638;2022-10-22T04:35:26;18.58;;;14.87;;
62673;SDS011;62269;47.594;17.638;2022-10-22T04:36:17;18.15;;;15.93;;
62673;SDS011;62269;47.594;17.638;2022-10-22T04:37:07;17.33;;;15.27;;
62673;SDS011;62269;47.594;17.638;2022-10-22T04:37:57;18.15;;;15.18;;
62673;SDS011;62269;47.594;17.638;2022-10-22T04:38:53;20.05;;;14.85;;
62673;SDS011;62269;47.594;17.638;2022-10-22T04:39:45;18.00;;;15.30;;
62673;SDS011;62269;47.594;17.638;2022-10-22T04:40:36;22.90;;;15.90;;
62673;SDS011;62269;47.594;17.638;2022-10-22T04:42:18;18.05;;;14.05;;
62673;SDS011;62269;47.594;17.638;2022-10-22T04:43:07;15.68;;;14.00;;
62673;SDS011;62269;47.594;17.638;2022-10-22T04:44:00;19.12;;;15.05;;
62673;SDS011;62269;47.594;17.638;2022-10-22T04:44:51;17.05;;;15.15;;
62673;SDS011;62269;47.594;17.638;2022-10-22T04:45:42;19.33;;;15.13;;
62673;SDS011;62269;47.594;17.638;2022-10-22T04:46:34;22.15;;;16.55;;
62673;SDS011;62269;47.594;17.638;2022-10-22T04:47:27;18.98;;;15.90;;
62673;SDS011;62269;47.594;17.638;2022-10-22T04:48:16;19.67;;;15.63;;
62673;SDS011;62269;47.594;17.638;2022-10-22T04:49:06;19.70;;;15.50;;
62673;SDS011;62269;47.594;17.638;2022-10-22T04:49:56;19.95;;;16.08;;
62673;SDS011;62269;47.594;17.638;2022-10-22T04:50:47;20.42;;;15.65;;
62673;SDS011;62269;47.594;17.638;2022-10-22T04:51:36;19.08;;;15.27;;
62673;SDS011;62269;47.594;17.638;2022-10-22T04:52:27;18.98;;;15.82;;
62673;SDS011;62269;47.594;17.638;2022-10-22T04:54:09;21.55;;;15.65;;
62673;SDS011;62269;47.594;17.638;2022-10-22T04:55:01;17.58;;;15.35;;
62673;SDS011;62269;47.594;17.638;2022-10-22T04:55:50;18.55;;;14.68;;
62673;SDS011;62269;47.594;17.638;2022-10-22T04:56:39;20.12;;;15.73;;
62673;SDS011;62269;47.594;17.638;2022-10-22T04:57:29;19.37;;;16.62;;
62673;SDS011;62269;47.594;17.638;2022-10-22T04:58:18;19.30;;;16.27;;
62673;SDS011;62269;47.594;17.638;2022-10-22T04:59:09;20.88;;;15.85;;
62673;SDS011;62269;47.594;17.638;2022-10-22T05:00:00;17.90;;;15.98;;
62673;SDS011;62269;47.594;17.638;2022-10-22T05:00:52;21.33;;;15.65;;
62673;SDS011;62269;47.594;17.638;2022-10-22T05:01:43;24.08;;;18.15;;
62673;SDS011;62269;47.594;17.638;2022-10-22T05:02:32;24.05;;;17.85;;
62673;SDS011;62269;47.594;17.638;2022-10-22T05:03:23;20.40;;;17.35;;
62673;SDS011;62269;47.594;17.638;2022-10-22T05:04:15;22.65;;;16.77;;
62673;SDS011;62269;47.594;17.638;2022-10-22T05:05:07;18.70;;;15.48;;
62673;SDS011;62269;47.594;17.638;2022-10-22T05:06:00;19.30;;;15.82;;
62673;SDS011;62269;47.594;17.638;2022-10-22T05:06:51;18.27;;;15.23;;
62673;SDS011;62269;47.594;17.638;2022-10-22T05:07:40;20.15;;;15.57;;
62673;SDS011;62269;47.594;17.638;2022-10-22T05:08:31;18.00;;;15.98;;
62673;SDS011;62269;47.594;17.638;2022-10-22T05:09:22;17.05;;;14.55;;
62673;SDS011;62269;47.594;17.638;2022-10-22T05:10:10;18.65;;;15.85;;
62673;SDS011;62269;47.594;17.638;2022-10-22T05:10:59;20.65;;;15.10;;